createdAt,value
2019-04-10T00:00:53.104Z,8.03
2019-04-10T00:01:53.087Z,7.91
2019-04-10T00:02:53.590Z,7.93
2019-04-10T00:03:52.825Z,7.91
2019-04-10T00:04:53.624Z,7.91
2019-04-10T00:05:54.272Z,8.02
2019-04-10T00:07:06.993Z,7.91
2019-04-10T00:07:53.548Z,7.98
2019-04-10T00:08:52.939Z,7.90
2019-04-10T00:09:53.041Z,7.93
2019-04-10T00:10:52.952Z,7.88
2019-04-10T00:11:54.245Z,7.88
2019-04-10T00:12:54.119Z,7.83
2019-04-10T00:13:55.270Z,7.95
2019-04-10T00:14:53.068Z,7.85
2019-04-10T00:15:53.070Z,7.90
2019-04-10T00:16:54.258Z,7.84
2019-04-10T00:17:53.563Z,7.85
2019-04-10T00:18:54.010Z,7.88
2019-04-10T00:19:54.005Z,7.83
2019-04-10T00:20:53.258Z,7.91
2019-04-10T00:21:53.573Z,7.80
2019-04-10T00:22:53.222Z,7.80
2019-04-10T00:23:53.450Z,7.88
2019-04-10T00:24:53.265Z,7.83
2019-04-10T00:25:53.286Z,7.83
2019-04-10T00:26:54.303Z,7.85
2019-04-10T00:27:53.329Z,7.84
2019-04-10T00:28:53.905Z,7.70
2019-04-10T00:29:54.344Z,7.75
2019-04-10T00:30:53.611Z,7.83
2019-04-10T00:31:54.223Z,7.80
2019-04-10T00:32:54.440Z,7.67
2019-04-10T00:33:53.605Z,7.77
2019-04-10T00:34:54.007Z,7.74
2019-04-10T00:35:54.013Z,7.67
2019-04-10T00:36:53.532Z,7.74
2019-04-10T00:37:53.562Z,7.72
2019-04-10T00:38:53.900Z,7.69
2019-04-10T00:39:53.595Z,7.72
2019-04-10T00:40:53.630Z,7.72
2019-04-10T00:41:54.618Z,7.70
2019-04-10T00:42:53.803Z,7.66
2019-04-10T00:43:53.688Z,7.61
2019-04-10T00:44:54.209Z,7.59
2019-04-10T00:45:53.731Z,7.72
2019-04-10T00:46:54.743Z,7.69
2019-04-10T00:47:53.774Z,7.78
2019-04-10T00:48:54.515Z,7.70
2019-04-10T00:49:53.824Z,7.74
2019-04-10T00:50:54.906Z,7.75
2019-04-10T00:51:53.866Z,7.70
2019-04-10T00:52:54.691Z,7.70
2019-04-10T00:53:53.961Z,7.70
2019-04-10T00:54:53.934Z,7.70
2019-04-10T00:55:54.345Z,7.59
2019-04-10T00:56:53.980Z,7.72
2019-04-10T00:57:54.745Z,7.69
2019-04-10T00:58:54.021Z,7.58
2019-04-10T00:59:54.692Z,7.61
2019-04-10T01:00:55.028Z,7.62
2019-04-10T01:01:54.317Z,7.50
2019-04-10T01:02:54.118Z,7.51
2019-04-10T01:03:54.137Z,7.48
2019-04-10T01:04:55.054Z,7.47
2019-04-10T01:05:54.175Z,7.47
2019-04-10T01:06:54.559Z,7.46
2019-04-10T01:07:54.226Z,7.44
2019-04-10T01:08:55.152Z,7.43
2019-04-10T01:09:54.279Z,7.50
2019-04-10T01:10:54.688Z,7.40
2019-04-10T01:11:55.236Z,7.48
2019-04-10T01:12:54.498Z,7.50
2019-04-10T01:13:54.349Z,7.53
2019-04-10T01:14:54.378Z,7.46
2019-04-10T01:15:55.168Z,7.40
2019-04-10T01:16:54.418Z,7.41
2019-04-10T01:17:54.817Z,7.36
2019-04-10T01:18:55.157Z,7.26
2019-04-10T01:19:54.511Z,7.31
2019-04-10T01:20:55.495Z,7.29
2019-04-10T01:21:54.850Z,7.26
2019-04-10T01:22:55.253Z,7.31
2019-04-10T01:23:55.321Z,7.28
2019-04-10T01:24:54.604Z,7.37
2019-04-10T01:25:54.805Z,7.26
2019-04-10T01:26:55.825Z,7.25
2019-04-10T01:27:54.669Z,7.29
2019-04-10T01:28:55.578Z,7.28
2019-04-10T01:29:54.743Z,7.19
2019-04-10T01:30:54.982Z,7.19
2019-04-10T01:31:55.281Z,7.25
2019-04-10T01:32:54.778Z,7.26
2019-04-10T01:33:54.884Z,7.15
2019-04-10T01:34:55.903Z,7.13
2019-04-10T01:35:54.835Z,7.11
2019-04-10T01:36:54.881Z,7.08
2019-04-10T01:38:00.423Z,7.19
2019-04-10T01:38:54.930Z,7.14
2019-04-10T01:39:54.929Z,7.13
2019-04-10T01:40:55.356Z,7.08
2019-04-10T01:41:54.971Z,7.15
2019-04-10T01:43:08.262Z,7.25
2019-04-10T01:43:55.299Z,7.08
2019-04-10T01:44:55.223Z,7.15
2019-04-10T01:45:55.059Z,7.07
2019-04-10T01:46:55.091Z,7.07
2019-04-10T01:47:55.348Z,7.11
2019-04-10T01:48:55.518Z,7.21
2019-04-10T01:49:55.770Z,7.18
2019-04-10T01:50:55.184Z,7.05
2019-04-10T01:51:55.363Z,7.01
2019-04-10T01:52:55.549Z,7.05
2019-04-10T01:53:55.255Z,7.07
2019-04-10T01:54:55.498Z,7.13
2019-04-10T01:55:55.557Z,7.13
2019-04-10T01:56:55.634Z,6.96
2019-04-10T01:57:55.323Z,7.04
2019-04-10T01:58:55.349Z,6.93
2019-04-10T01:59:56.312Z,6.96
2019-04-10T02:00:56.299Z,7.05
2019-04-10T02:01:55.417Z,7.01
2019-04-10T02:02:55.881Z,7.03
2019-04-10T02:03:55.463Z,7.00
2019-04-10T02:04:56.676Z,6.93
2019-04-10T02:05:55.500Z,6.96
2019-04-10T02:06:55.912Z,7.03
2019-04-10T02:08:03.197Z,6.95
2019-04-10T02:08:56.363Z,7.01
2019-04-10T02:09:56.184Z,7.08
2019-04-10T02:10:56.572Z,7.05
2019-04-10T02:11:56.518Z,7.07
2019-04-10T02:12:55.658Z,6.97
2019-04-10T02:13:56.681Z,6.95
2019-04-10T02:14:56.546Z,6.89
2019-04-10T02:15:56.664Z,6.92
2019-04-10T02:16:56.935Z,6.96
2019-04-10T02:17:55.770Z,6.92
2019-04-10T02:18:55.785Z,6.96
2019-04-10T02:19:56.803Z,6.95
2019-04-10T02:20:55.830Z,6.92
2019-04-10T02:21:56.149Z,6.96
2019-04-10T02:22:56.204Z,6.95
2019-04-10T02:23:55.910Z,6.90
2019-04-10T02:24:55.914Z,6.85
2019-04-10T02:25:56.986Z,6.72
2019-04-10T02:26:56.166Z,6.89
2019-04-10T02:27:56.381Z,6.82
2019-04-10T02:28:55.998Z,6.86
2019-04-10T02:29:56.022Z,6.90
2019-04-10T02:30:56.708Z,6.86
2019-04-10T02:31:57.345Z,6.87
2019-04-10T02:32:57.789Z,6.89
2019-04-10T02:33:59.086Z,6.75
2019-04-10T02:34:57.524Z,6.77
2019-04-10T02:35:57.156Z,6.85
2019-04-10T02:36:56.171Z,6.74
2019-04-10T02:37:58.317Z,6.68
2019-04-10T02:39:08.507Z,6.71
2019-04-10T02:40:00.292Z,6.72
2019-04-10T02:40:57.493Z,6.70
2019-04-10T02:41:56.366Z,6.74
2019-04-10T02:42:56.647Z,6.70
2019-04-10T02:43:57.964Z,6.74
2019-04-10T02:44:57.811Z,6.83
2019-04-10T02:45:57.724Z,6.80
2019-04-10T02:46:59.076Z,6.70
2019-04-10T02:47:56.598Z,6.74
2019-04-10T02:48:57.828Z,6.71
2019-04-10T02:49:56.739Z,6.68
2019-04-10T02:50:57.588Z,6.67
2019-04-10T02:51:56.996Z,6.70
2019-04-10T02:52:57.244Z,6.65
2019-04-10T02:53:58.010Z,6.75
2019-04-10T02:54:57.794Z,6.64
2019-04-10T02:55:58.194Z,6.65
2019-04-10T02:56:56.928Z,6.70
2019-04-10T02:57:58.624Z,6.74
2019-04-10T02:58:56.778Z,6.77
2019-04-10T02:59:57.536Z,6.72
2019-04-10T03:00:56.703Z,6.71
2019-04-10T03:01:57.994Z,6.74
2019-04-10T03:02:59.045Z,6.72
2019-04-10T03:03:56.805Z,6.85
2019-04-10T03:04:57.370Z,6.87
2019-04-10T03:05:58.571Z,6.80
2019-04-10T03:06:57.647Z,6.80
2019-04-10T03:07:58.286Z,6.82
2019-04-10T03:09:11.911Z,6.75
2019-04-10T03:10:08.739Z,6.74
2019-04-10T03:11:03.611Z,6.80
2019-04-10T03:11:57.394Z,6.71
2019-04-10T03:12:58.558Z,6.62
2019-04-10T03:13:56.988Z,6.65
2019-04-10T03:14:56.999Z,6.70
2019-04-10T03:15:57.789Z,6.75
2019-04-10T03:16:57.049Z,6.77
2019-04-10T03:17:57.070Z,6.82
2019-04-10T03:18:57.083Z,6.80
2019-04-10T03:19:58.085Z,6.77
2019-04-10T03:20:57.157Z,6.77
2019-04-10T03:21:57.700Z,6.82
2019-04-10T03:22:57.175Z,6.80
2019-04-10T03:23:57.983Z,6.86
2019-04-10T03:24:57.220Z,6.83
2019-04-10T03:25:57.329Z,6.82
2019-04-10T03:26:58.192Z,6.83
2019-04-10T03:27:57.275Z,6.83
2019-04-10T03:28:57.740Z,6.72
2019-04-10T03:29:57.325Z,6.83
2019-04-10T03:30:59.974Z,6.78
2019-04-10T03:31:59.343Z,6.90
2019-04-10T03:33:03.004Z,6.83
2019-04-10T03:33:58.712Z,6.89
2019-04-10T03:34:58.459Z,6.82
2019-04-10T03:35:57.453Z,6.85
2019-04-10T03:36:58.086Z,6.92
2019-04-10T03:37:57.501Z,6.93
2019-04-10T03:39:02.972Z,6.83
2019-04-10T03:39:57.535Z,6.90
2019-04-10T03:40:57.711Z,6.86
2019-04-10T03:41:57.577Z,6.70
2019-04-10T03:42:57.599Z,6.67
2019-04-10T03:43:58.441Z,6.68
2019-04-10T03:44:57.649Z,6.68
2019-04-10T03:45:57.665Z,6.67
2019-04-10T03:46:58.671Z,6.57
2019-04-10T03:47:58.038Z,6.65
2019-04-10T03:48:57.797Z,6.59
2019-04-10T03:49:58.251Z,6.39
2019-04-10T03:50:58.669Z,6.39
2019-04-10T03:51:57.799Z,6.49
2019-04-10T03:52:57.971Z,6.39
2019-04-10T03:53:58.436Z,6.39
2019-04-10T03:54:58.687Z,6.46
2019-04-10T03:55:59.042Z,6.50
2019-04-10T03:56:58.296Z,6.59
2019-04-10T03:57:58.691Z,6.47
2019-04-10T03:58:57.989Z,6.35
2019-04-10T03:59:58.162Z,6.43
2019-04-10T04:00:58.554Z,6.47
2019-04-10T04:01:58.012Z,6.50
2019-04-10T04:02:58.233Z,6.35
2019-04-10T04:03:58.058Z,6.39
2019-04-10T04:04:58.085Z,6.34
2019-04-10T04:05:59.127Z,6.46
2019-04-10T04:06:58.118Z,6.44
2019-04-10T04:07:59.126Z,6.38
2019-04-10T04:09:06.668Z,6.32
2019-04-10T04:09:58.212Z,6.22
2019-04-10T04:10:59.203Z,6.07
2019-04-10T04:11:58.222Z,6.26
2019-04-10T04:13:00.018Z,6.22
2019-04-10T04:13:58.274Z,6.35
2019-04-10T04:14:59.104Z,6.36
2019-04-10T04:15:58.311Z,6.38
2019-04-10T04:16:58.330Z,6.32
2019-04-10T04:17:58.360Z,6.35
2019-04-10T04:18:58.382Z,6.44
2019-04-10T04:19:58.819Z,6.43
2019-04-10T04:20:59.344Z,6.43
2019-04-10T04:21:58.528Z,6.38
2019-04-10T04:22:58.472Z,6.47
2019-04-10T04:23:59.416Z,6.46
2019-04-10T04:24:58.500Z,6.28
2019-04-10T04:25:58.946Z,6.35
2019-04-10T04:26:58.546Z,6.46
2019-04-10T04:27:58.570Z,6.47
2019-04-10T04:28:58.590Z,6.53
2019-04-10T04:29:59.646Z,6.54
2019-04-10T04:30:58.884Z,6.59
2019-04-10T04:31:59.127Z,6.67
2019-04-10T04:32:58.672Z,6.64
2019-04-10T04:33:59.622Z,6.60
2019-04-10T04:34:59.756Z,6.67
2019-04-10T04:35:59.843Z,6.54
2019-04-10T04:36:58.761Z,6.39
2019-04-10T04:37:58.778Z,6.41
2019-04-10T04:38:59.883Z,6.39
2019-04-10T04:39:58.824Z,6.32
2019-04-10T04:40:58.844Z,6.31
2019-04-10T04:41:58.862Z,6.35
2019-04-10T04:42:58.891Z,6.44
2019-04-10T04:43:58.917Z,6.44
2019-04-10T04:44:58.932Z,6.35
2019-04-10T04:45:59.205Z,6.35
2019-04-10T04:46:59.189Z,6.36
2019-04-10T04:47:59.777Z,6.25
2019-04-10T04:48:59.782Z,6.38
2019-04-10T04:49:59.212Z,6.39
2019-04-10T04:50:59.864Z,6.39
2019-04-10T04:52:00.200Z,6.36
2019-04-10T04:52:59.098Z,6.44
2019-04-10T04:53:59.125Z,6.32
2019-04-10T04:54:59.140Z,6.34
2019-04-10T04:55:59.655Z,6.39
2019-04-10T04:57:00.133Z,6.38
2019-04-10T04:57:59.863Z,6.50
2019-04-10T04:58:59.495Z,6.50
2019-04-10T04:59:59.251Z,6.53
2019-04-10T05:00:59.275Z,6.49
2019-04-10T05:01:59.291Z,6.32
2019-04-10T05:02:59.803Z,6.20
2019-04-10T05:04:00.312Z,6.13
2019-04-10T05:05:00.379Z,6.15
2019-04-10T05:06:00.297Z,6.22
2019-04-10T05:06:59.919Z,6.31
2019-04-10T05:08:02.563Z,6.25
2019-04-10T05:08:59.438Z,6.15
2019-04-10T05:10:01.415Z,6.10
2019-04-10T05:11:00.133Z,6.25
2019-04-10T05:12:00.611Z,6.26
2019-04-10T05:12:59.933Z,6.22
2019-04-10T05:13:59.547Z,6.32
2019-04-10T05:15:00.358Z,6.34
2019-04-10T05:15:59.601Z,6.41
2019-04-10T05:16:59.611Z,6.39
2019-04-10T05:17:59.775Z,6.31
2019-04-10T05:18:59.655Z,6.36
2019-04-10T05:20:00.647Z,6.41
2019-04-10T05:21:00.720Z,6.32
2019-04-10T05:21:59.715Z,6.31
2019-04-10T05:22:59.954Z,6.39
2019-04-10T05:23:59.758Z,6.29
2019-04-10T05:25:00.678Z,6.41
2019-04-10T05:26:00.541Z,6.35
2019-04-10T05:26:59.893Z,6.39
2019-04-10T05:27:59.846Z,6.39
2019-04-10T05:29:00.533Z,6.38
2019-04-10T05:29:59.993Z,6.34
2019-04-10T05:31:00.921Z,6.29
2019-04-10T05:32:00.934Z,6.17
2019-04-10T05:32:59.958Z,6.25
2019-04-10T05:34:00.863Z,6.28
2019-04-10T05:35:01.195Z,6.35
2019-04-10T05:36:00.025Z,6.38
2019-04-10T05:37:00.040Z,6.49
2019-04-10T05:38:00.436Z,6.39
2019-04-10T05:39:00.083Z,6.39
2019-04-10T05:40:01.188Z,6.39
2019-04-10T05:41:01.264Z,6.35
2019-04-10T05:42:02.328Z,6.31
2019-04-10T05:43:00.163Z,6.29
2019-04-10T05:44:00.730Z,6.35
2019-04-10T05:45:00.752Z,6.31
2019-04-10T05:46:00.227Z,6.41
2019-04-10T05:47:01.185Z,6.50
2019-04-10T05:48:01.191Z,6.53
2019-04-10T05:49:00.291Z,6.64
2019-04-10T05:50:00.313Z,6.59
2019-04-10T05:51:04.301Z,6.54
2019-04-10T05:52:00.352Z,6.34
2019-04-10T05:53:00.375Z,6.35
2019-04-10T05:54:00.397Z,6.35
2019-04-10T05:55:00.425Z,6.41
2019-04-10T05:56:01.483Z,6.44
2019-04-10T05:57:01.159Z,6.38
2019-04-10T05:58:01.526Z,6.47
2019-04-10T05:59:00.500Z,6.53
2019-04-10T06:00:00.581Z,6.39
2019-04-10T06:01:01.014Z,6.52
2019-04-10T06:02:01.081Z,6.54
2019-04-10T06:03:00.600Z,6.54
2019-04-10T06:04:00.918Z,6.52
2019-04-10T06:05:00.628Z,6.50
2019-04-10T06:06:01.179Z,6.50
2019-04-10T06:07:00.948Z,6.70
2019-04-10T06:08:01.345Z,6.67
2019-04-10T06:09:00.711Z,6.65
2019-04-10T06:10:04.970Z,6.62
2019-04-10T06:11:00.774Z,6.60
2019-04-10T06:12:00.779Z,6.43
2019-04-10T06:13:00.800Z,6.39
2019-04-10T06:14:01.145Z,6.35
2019-04-10T06:15:00.846Z,6.49
2019-04-10T06:16:01.541Z,6.62
2019-04-10T06:17:04.034Z,6.71
2019-04-10T06:18:00.908Z,6.60
2019-04-10T06:19:01.845Z,6.68
2019-04-10T06:20:00.956Z,6.71
2019-04-10T06:21:00.991Z,6.83
2019-04-10T06:22:01.094Z,6.85
2019-04-10T06:23:01.300Z,6.97
2019-04-10T06:24:01.026Z,6.96
2019-04-10T06:25:01.062Z,6.72
2019-04-10T06:26:03.450Z,6.87
2019-04-10T06:27:01.872Z,6.85
2019-04-10T06:28:01.179Z,6.95
2019-04-10T06:29:02.297Z,6.95
2019-04-10T06:30:01.860Z,7.03
2019-04-10T06:31:01.186Z,7.00
2019-04-10T06:32:01.234Z,6.85
2019-04-10T06:33:02.173Z,6.64
2019-04-10T06:34:01.420Z,6.68
2019-04-10T06:35:01.945Z,6.74
2019-04-10T06:36:01.288Z,6.80
2019-04-10T06:37:01.919Z,6.83
2019-04-10T06:38:02.326Z,6.71
2019-04-10T06:39:02.551Z,6.60
2019-04-10T06:40:10.759Z,6.65
2019-04-10T06:41:02.188Z,6.82
2019-04-10T06:42:02.552Z,6.74
2019-04-10T06:43:01.457Z,6.87
2019-04-10T06:44:01.524Z,6.95
2019-04-10T06:45:02.715Z,6.93
2019-04-10T06:46:01.536Z,6.97
2019-04-10T06:47:02.181Z,7.07
2019-04-10T06:48:02.426Z,7.15
2019-04-10T06:49:02.958Z,7.32
2019-04-10T06:50:02.552Z,7.22
2019-04-10T06:51:02.100Z,7.18
2019-04-10T06:52:01.945Z,7.14
2019-04-10T06:53:01.671Z,7.31
2019-04-10T06:54:06.934Z,7.14
2019-04-10T06:55:02.917Z,7.22
2019-04-10T06:56:02.811Z,7.18
2019-04-10T06:57:02.770Z,7.13
2019-04-10T06:58:02.749Z,7.04
2019-04-10T06:59:02.531Z,7.14
2019-04-10T07:00:02.333Z,7.37
2019-04-10T07:01:01.963Z,7.53
2019-04-10T07:02:13.975Z,7.58
2019-04-10T07:03:02.993Z,7.40
2019-04-10T07:04:06.506Z,7.40
2019-04-10T07:05:05.765Z,7.47
2019-04-10T07:06:09.753Z,7.53
2019-04-10T07:07:07.816Z,7.50
2019-04-10T07:08:10.584Z,7.55
2019-04-10T07:09:02.016Z,7.59
2019-04-10T07:10:02.365Z,7.44
2019-04-10T07:11:08.173Z,7.43
2019-04-10T07:12:03.388Z,7.56
2019-04-10T07:13:05.531Z,7.74
2019-04-10T07:14:02.123Z,7.80
2019-04-10T07:15:02.395Z,7.84
2019-04-10T07:16:02.260Z,7.95
2019-04-10T07:17:05.448Z,7.96
2019-04-10T07:18:03.042Z,7.88
2019-04-10T07:19:05.595Z,8.08
2019-04-10T07:20:02.238Z,8.14
2019-04-10T07:21:02.263Z,7.93
2019-04-10T07:22:07.414Z,8.03
2019-04-10T07:23:03.064Z,8.02
2019-04-10T07:24:06.308Z,8.02
2019-04-10T07:25:02.895Z,8.14
2019-04-10T07:26:02.366Z,8.17
2019-04-10T07:27:04.604Z,8.27
2019-04-10T07:28:02.885Z,8.31
2019-04-10T07:29:02.655Z,8.34
2019-04-10T07:30:03.515Z,8.08
2019-04-10T07:31:08.116Z,8.14
2019-04-10T07:32:04.860Z,8.14
2019-04-10T07:33:03.409Z,8.32
2019-04-10T07:34:03.336Z,8.44
2019-04-10T07:35:03.270Z,8.50
2019-04-10T07:36:06.723Z,8.53
2019-04-10T07:37:02.616Z,8.57
2019-04-10T07:38:02.639Z,8.52
2019-04-10T07:39:03.430Z,8.56
2019-04-10T07:40:04.493Z,8.72
2019-04-10T07:41:07.020Z,8.71
2019-04-10T07:42:02.721Z,8.72
2019-04-10T07:43:02.742Z,8.45
2019-04-10T07:44:03.710Z,8.56
2019-04-10T07:45:02.783Z,8.71
2019-04-10T07:46:02.810Z,8.75
2019-04-10T07:47:02.833Z,9.27
2019-04-10T07:48:02.856Z,9.59
2019-04-10T07:49:03.019Z,9.64
2019-04-10T07:50:04.613Z,9.48
2019-04-10T07:51:02.931Z,9.33
2019-04-10T07:52:03.626Z,9.16
2019-04-10T07:53:03.072Z,9.03
2019-04-10T07:54:04.041Z,8.92
2019-04-10T07:55:03.010Z,8.99
2019-04-10T07:56:07.621Z,9.15
2019-04-10T07:57:04.194Z,9.30
2019-04-10T07:58:03.082Z,9.05
2019-04-10T07:59:03.112Z,8.96
2019-04-10T08:00:03.241Z,9.03
2019-04-10T08:01:03.142Z,9.27
2019-04-10T08:02:05.848Z,9.18
2019-04-10T08:03:04.176Z,9.36
2019-04-10T08:04:04.166Z,9.62
2019-04-10T08:05:04.266Z,9.62
2019-04-10T08:06:03.437Z,9.73
2019-04-10T08:07:03.296Z,9.70
2019-04-10T08:08:03.306Z,9.84
2019-04-10T08:09:04.038Z,9.87
2019-04-10T08:10:03.615Z,9.77
2019-04-10T08:11:03.368Z,9.74
2019-04-10T08:12:03.392Z,10.17
2019-04-10T08:13:04.402Z,10.36
2019-04-10T08:14:06.207Z,10.09
2019-04-10T08:15:03.462Z,10.36
2019-04-10T08:16:03.476Z,10.51
2019-04-10T08:17:03.769Z,10.48
2019-04-10T08:18:04.479Z,10.45
2019-04-10T08:19:04.107Z,10.49
2019-04-10T08:20:03.819Z,10.42
2019-04-10T08:21:03.616Z,10.23
2019-04-10T08:22:03.748Z,10.17
2019-04-10T08:23:03.749Z,10.18
2019-04-10T08:24:03.773Z,10.28
2019-04-10T08:25:04.402Z,9.94
2019-04-10T08:26:03.712Z,9.85
2019-04-10T08:27:03.758Z,9.87
2019-04-10T08:28:03.757Z,9.88
2019-04-10T08:29:03.782Z,10.00
2019-04-10T08:30:03.816Z,9.85
2019-04-10T08:31:04.414Z,9.95
2019-04-10T08:32:03.852Z,9.85
2019-04-10T08:33:04.817Z,9.74
2019-04-10T08:34:03.907Z,10.00
2019-04-10T08:35:04.632Z,10.18
2019-04-10T08:36:03.957Z,10.13
2019-04-10T08:37:03.968Z,10.48
2019-04-10T08:38:03.986Z,11.33
2019-04-10T08:39:04.649Z,12.57
2019-04-10T08:40:05.270Z,13.39
2019-04-10T08:41:05.006Z,13.73
2019-04-10T08:42:04.352Z,13.54
2019-04-10T08:43:04.217Z,13.16
2019-04-10T08:44:04.434Z,12.75
2019-04-10T08:45:04.990Z,12.43
2019-04-10T08:46:05.212Z,12.11
2019-04-10T08:47:04.207Z,11.89
2019-04-10T08:48:04.227Z,11.85
2019-04-10T08:49:04.245Z,11.73
2019-04-10T08:50:05.507Z,11.63
2019-04-10T08:51:04.295Z,11.41
2019-04-10T08:52:04.315Z,11.65
2019-04-10T08:53:04.369Z,11.51
2019-04-10T08:54:04.367Z,11.76
2019-04-10T08:55:04.391Z,12.26
2019-04-10T08:56:04.526Z,12.12
2019-04-10T08:57:05.338Z,12.14
2019-04-10T08:58:04.461Z,11.86
2019-04-10T08:59:05.498Z,11.53
2019-04-10T09:00:04.647Z,11.52
2019-04-10T09:01:05.006Z,11.62
2019-04-10T09:02:04.571Z,11.85
2019-04-10T09:03:04.580Z,11.77
2019-04-10T09:04:05.629Z,11.83
2019-04-10T09:05:05.607Z,11.78
2019-04-10T09:06:04.662Z,12.21
2019-04-10T09:07:05.719Z,12.23
2019-04-10T09:08:04.711Z,12.53
2019-04-10T09:09:05.450Z,13.47
2019-04-10T09:10:05.897Z,14.12
2019-04-10T09:11:04.988Z,14.36
2019-04-10T09:12:05.216Z,14.13
2019-04-10T09:13:04.827Z,13.85
2019-04-10T09:14:05.183Z,13.62
2019-04-10T09:15:05.549Z,13.65
2019-04-10T09:16:04.883Z,13.64
2019-04-10T09:17:04.957Z,13.62
2019-04-10T09:18:06.013Z,13.13
2019-04-10T09:19:05.582Z,12.91
2019-04-10T09:20:05.030Z,12.86
2019-04-10T09:21:05.055Z,13.09
2019-04-10T09:22:05.968Z,13.16
2019-04-10T09:23:18.943Z,13.03
2019-04-10T09:24:05.082Z,12.98
2019-04-10T09:25:05.115Z,13.09
2019-04-10T09:26:05.828Z,13.19
2019-04-10T09:27:05.169Z,13.17
2019-04-10T09:28:06.345Z,13.06
2019-04-10T09:29:05.230Z,13.19
2019-04-10T09:30:05.242Z,13.43
2019-04-10T09:31:05.264Z,13.39
2019-04-10T09:32:06.365Z,13.31
2019-04-10T09:33:16.009Z,13.64
2019-04-10T09:34:05.468Z,14.16
2019-04-10T09:35:06.521Z,14.25
2019-04-10T09:36:05.383Z,14.20
2019-04-10T09:37:06.000Z,14.20
2019-04-10T09:38:06.249Z,14.62
2019-04-10T09:39:05.450Z,15.00
2019-04-10T09:40:05.648Z,15.92
2019-04-10T09:41:05.718Z,16.21
2019-04-10T09:42:06.680Z,15.96
2019-04-10T09:43:05.556Z,15.63
2019-04-10T09:44:06.539Z,16.05
2019-04-10T09:45:05.604Z,16.09
2019-04-10T09:46:06.442Z,15.99
2019-04-10T09:47:05.655Z,15.96
2019-04-10T09:48:06.472Z,15.70
2019-04-10T09:49:06.874Z,15.94
2019-04-10T09:50:05.791Z,16.58
2019-04-10T09:51:05.780Z,17.12
2019-04-10T09:52:06.801Z,17.38
2019-04-10T09:53:05.810Z,17.59
2019-04-10T09:54:05.849Z,18.06
2019-04-10T09:55:05.870Z,18.46
2019-04-10T09:56:05.920Z,19.44
2019-04-10T09:57:06.929Z,19.29
2019-04-10T09:58:06.795Z,19.90
2019-04-10T09:59:05.985Z,21.53
2019-04-10T10:00:05.994Z,21.84
2019-04-10T10:01:06.022Z,22.19
2019-04-10T10:02:07.067Z,22.56
2019-04-10T10:03:06.082Z,22.22
2019-04-10T10:04:06.918Z,21.43
2019-04-10T10:05:06.379Z,21.92
2019-04-10T10:06:07.030Z,21.62
2019-04-10T10:07:06.188Z,21.94
2019-04-10T10:08:06.462Z,20.56
2019-04-10T10:09:06.340Z,21.13
2019-04-10T10:10:06.568Z,21.75
2019-04-10T10:11:06.316Z,22.14
2019-04-10T10:12:07.328Z,23.02
2019-04-10T10:13:07.429Z,23.34
2019-04-10T10:14:06.388Z,23.28
2019-04-10T10:15:07.247Z,22.37
2019-04-10T10:16:06.518Z,22.41
2019-04-10T10:17:06.588Z,22.84
2019-04-10T10:18:06.514Z,22.25
2019-04-10T10:19:06.538Z,21.70
2019-04-10T10:20:07.815Z,22.30
2019-04-10T10:21:06.590Z,22.86
2019-04-10T10:22:07.595Z,23.85
2019-04-10T10:23:06.654Z,24.09
2019-04-10T10:24:06.686Z,22.95
2019-04-10T10:25:06.999Z,23.92
2019-04-10T10:26:07.891Z,23.84
2019-04-10T10:27:07.400Z,23.13
2019-04-10T10:28:07.027Z,23.39
2019-04-10T10:29:06.833Z,23.23
2019-04-10T10:30:07.137Z,23.28
2019-04-10T10:31:06.904Z,22.70
2019-04-10T10:32:06.932Z,22.12
2019-04-10T10:33:07.785Z,22.63
2019-04-10T10:34:06.999Z,22.93
2019-04-10T10:35:07.211Z,23.21
2019-04-10T10:36:07.482Z,23.33
2019-04-10T10:37:08.310Z,23.96
2019-04-10T10:38:07.620Z,24.21
2019-04-10T10:39:11.924Z,24.10
2019-04-10T10:40:08.332Z,24.53
2019-04-10T10:41:07.205Z,24.18
2019-04-10T10:42:07.595Z,22.96
2019-04-10T10:43:07.862Z,22.61
2019-04-10T10:44:07.304Z,21.29
2019-04-10T10:45:07.352Z,19.77
2019-04-10T10:46:07.381Z,17.66
2019-04-10T10:47:08.344Z,17.16
2019-04-10T10:48:08.690Z,17.49
2019-04-10T10:49:08.396Z,16.32
2019-04-10T10:50:08.662Z,15.73
2019-04-10T10:51:08.678Z,16.66
2019-04-10T10:52:07.550Z,17.12
2019-04-10T10:53:08.121Z,17.49
2019-04-10T10:54:08.565Z,17.97
2019-04-10T10:55:07.789Z,18.13
2019-04-10T10:56:07.691Z,18.61
2019-04-10T10:57:08.749Z,18.76
2019-04-10T10:58:07.968Z,19.37
2019-04-10T10:59:07.774Z,20.71
2019-04-10T11:00:08.387Z,22.15
2019-04-10T11:01:07.827Z,21.72
2019-04-10T11:02:08.544Z,21.17
2019-04-10T11:03:07.887Z,20.85
2019-04-10T11:04:08.792Z,19.20
2019-04-10T11:05:08.816Z,20.11
2019-04-10T11:06:08.751Z,20.83
2019-04-10T11:07:08.642Z,21.77
2019-04-10T11:08:08.192Z,21.50
2019-04-10T11:09:08.364Z,21.91
2019-04-10T11:10:08.474Z,20.89
2019-04-10T11:11:08.703Z,19.64
2019-04-10T11:12:09.461Z,18.82
2019-04-10T11:13:08.878Z,19.17
2019-04-10T11:14:08.230Z,19.23
2019-04-10T11:15:08.261Z,17.94
2019-04-10T11:16:09.247Z,17.16
2019-04-10T11:17:09.238Z,16.89
2019-04-10T11:18:08.523Z,16.80
2019-04-10T11:19:08.410Z,16.39
2019-04-10T11:20:08.417Z,16.40
2019-04-10T11:21:11.570Z,15.65
2019-04-10T11:22:09.375Z,15.32
2019-04-10T11:23:09.545Z,14.79
2019-04-10T11:24:09.233Z,14.93
2019-04-10T11:25:08.570Z,14.94
2019-04-10T11:26:08.628Z,14.87
2019-04-10T11:27:09.997Z,14.53
2019-04-10T11:28:08.644Z,14.56
2019-04-10T11:29:09.931Z,14.34
2019-04-10T11:30:10.047Z,14.52
2019-04-10T11:31:09.264Z,14.44
2019-04-10T11:32:09.264Z,14.34
2019-04-10T11:33:08.795Z,14.12
2019-04-10T11:34:09.956Z,14.16
2019-04-10T11:35:08.842Z,14.15
2019-04-10T11:36:09.835Z,14.19
2019-04-10T11:37:23.441Z,14.20
2019-04-10T11:38:08.926Z,14.18
2019-04-10T11:39:17.130Z,13.87
2019-04-10T11:40:09.050Z,13.82
2019-04-10T11:41:09.122Z,13.73
2019-04-10T11:42:09.947Z,13.87
2019-04-10T11:43:10.068Z,13.86
2019-04-10T11:44:09.842Z,14.48
2019-04-10T11:45:10.283Z,14.12
2019-04-10T11:46:10.282Z,13.93
2019-04-10T11:47:10.478Z,13.78
2019-04-10T11:48:10.315Z,13.80
2019-04-10T11:49:11.061Z,13.68
2019-04-10T11:50:13.566Z,13.62
2019-04-10T11:51:12.414Z,13.73
2019-04-10T11:52:10.527Z,13.52
2019-04-10T11:53:10.409Z,13.42
2019-04-10T11:54:12.961Z,13.36
2019-04-10T11:55:13.834Z,13.55
2019-04-10T11:56:11.540Z,13.65
2019-04-10T11:57:10.089Z,13.79
2019-04-10T11:58:11.330Z,14.25
2019-04-10T11:59:11.778Z,14.37
2019-04-10T12:00:12.073Z,14.25
2019-04-10T12:01:10.546Z,14.25
2019-04-10T12:02:10.230Z,14.07
2019-04-10T12:03:10.305Z,14.01
2019-04-10T12:04:10.761Z,13.98
2019-04-10T12:05:14.763Z,14.04
2019-04-10T12:06:11.958Z,14.15
2019-04-10T12:07:16.418Z,14.16
2019-04-10T12:08:33.432Z,14.16
2019-04-10T12:09:45.036Z,14.15
2019-04-10T12:11:14.580Z,14.12
2019-04-10T12:12:09.830Z,14.12
2019-04-10T12:13:10.213Z,13.76
2019-04-10T12:14:11.013Z,13.55
2019-04-10T12:15:10.152Z,13.31
2019-04-10T12:16:09.962Z,13.17
2019-04-10T12:17:09.981Z,13.21
2019-04-10T12:18:10.679Z,13.16
2019-04-10T12:19:10.962Z,13.17
2019-04-10T12:20:11.131Z,13.26
2019-04-10T12:21:10.056Z,13.27
2019-04-10T12:22:10.107Z,13.40
2019-04-10T12:23:10.423Z,13.31
2019-04-10T12:24:10.138Z,13.11
2019-04-10T12:25:10.271Z,13.05
2019-04-10T12:26:10.222Z,13.02
2019-04-10T12:27:10.213Z,13.13
2019-04-10T12:28:10.259Z,12.94
2019-04-10T12:29:10.811Z,12.80
2019-04-10T12:30:11.144Z,12.76
2019-04-10T12:31:10.310Z,12.61
2019-04-10T12:32:10.412Z,12.76
2019-04-10T12:33:11.470Z,12.55
2019-04-10T12:34:10.782Z,12.65
2019-04-10T12:35:10.913Z,12.43
2019-04-10T12:36:10.449Z,12.47
2019-04-10T12:37:11.211Z,12.48
2019-04-10T12:38:13.162Z,12.51
2019-04-10T12:39:10.517Z,12.47
2019-04-10T12:40:11.750Z,12.37
2019-04-10T12:41:11.010Z,12.43
2019-04-10T12:42:10.598Z,12.51
2019-04-10T12:43:10.619Z,12.47
2019-04-10T12:44:11.656Z,12.53
2019-04-10T12:45:11.426Z,12.35
2019-04-10T12:46:10.813Z,12.40
2019-04-10T12:47:10.751Z,12.28
2019-04-10T12:48:10.743Z,12.29
2019-04-10T12:49:11.534Z,12.29
2019-04-10T12:50:10.791Z,12.39
2019-04-10T12:51:11.859Z,12.51
2019-04-10T12:52:10.846Z,12.48
2019-04-10T12:53:11.585Z,12.44
2019-04-10T12:54:11.898Z,12.26
2019-04-10T12:55:10.937Z,12.30
2019-04-10T12:56:10.941Z,12.32
2019-04-10T12:57:10.975Z,12.26
2019-04-10T12:58:15.744Z,12.25
2019-04-10T12:59:11.230Z,12.25
2019-04-10T13:00:11.799Z,12.47
2019-04-10T13:01:12.116Z,12.45
2019-04-10T13:02:12.336Z,12.48
2019-04-10T13:03:11.292Z,12.37
2019-04-10T13:04:11.748Z,12.17
2019-04-10T13:05:11.332Z,12.17
2019-04-10T13:06:11.190Z,12.28
2019-04-10T13:07:11.645Z,12.26
2019-04-10T13:08:17.847Z,12.26
2019-04-10T13:09:12.951Z,12.12
2019-04-10T13:10:11.318Z,12.14